Airfield :
LOGIN :

Register | Disclaimer

   EN    FR    IT 

 










Legend :    VFR   Marginal VFR   IFR   Intensive IFR   Very Intensive IFR
Visi :
Ceiling :
>= 8 km
>= 3000ft
5 to 8 km
1000 to 3000 ft
1500m to 5 km
500 to 1000 ft
800 to 1500m
200 to 500 ft
< 800m
< 200 ft
Symbols :   Thunderstorms  Fog  Heavy snow  Heavy precipitations  Wind > 20 kt
SIGMETs :     Misc.  Thunderstorms  Icing  Turbulence  Mountain Waves  Volcanic Ashes







- Airport Elevation : 464 ft
- IATA code : EVX
- Download approach charts


LFOE - Evreux

CURRENT METAR :
  • 190700Z AUTO 15005KT 9999 FEW049 SCT058 BKN100 13/12 Q1008

EXPIRED METARs :
  • 190630Z AUTO 14005KT 9999 FEW038 BKN056 13/11 Q1007
  • 190600Z AUTO 13006KT CAVOK 12/11 Q1008
  • 190530Z AUTO 12005KT CAVOK 12/11 Q1007
  • 190500Z AUTO 12005KT CAVOK 12/11 Q1008
  • 190430Z AUTO 10005KT CAVOK 12/11 Q1008

TAF AMD TAF LFOE
Valid from the 19 at 05:00 until the 20 at 03:00 UTC


190543Z 1905/2003 12005KT CAVOK
BECMG 1907/1909 17010G20KT BKN014
BECMG 1909/1911 17015G25KT BKN025
TEMPO 1911/1915 4000 -RA
BECMG 1921/1923 18020G30KT
TEMPO 1923/2002 18020G35KT 3000 -RA
BECMG 2002/2003 23012G22KT
No reported NOTAMs for that airfield.



MET'MAP, your aeronautical weather chart ! - Copyright ORBIFLY December 2007 - Disclaimer

ORBIFLY MET'MAP TEAM :

Programming & Development : Alexandra Zaïnal
Concept & Development : Baudouin d'Aumeries
Co-Development & Prog : Marc-Olivier Méhu
Technical & hardware support : Manuel Goepfert

Contact : metmap@orbifly.com




SOURCES & CREDITS :

   NOAA